Time;durP1;ratioP1;P1;durP2;ratioP2;P2;SDS_P1;SDS_P2;PMS_P1;PMS_P2;Temp;Humidity;BMP_temperature;BMP_pressure;BME280_temperature;BME280_humidity;BME280_pressure;Samples;Min_cycle;Max_cycle;Signal;HPM_P1;HPM_P2
2022/12/21 00:00:49;;;;;;;;;;;;;;;17.75;44.70;100680.84;5083438;28;20276;-59
2022/12/21 00:03:15;;;;;;;;;;;;;;;17.76;44.69;100676.97;5108340;28;20396;-59
2022/12/21 00:05:41;;;;;;;;;;;;;;;17.75;44.53;100680.84;5112528;28;19935;-59
2022/12/21 00:08:06;;;;;;;;;;;;;;;17.76;44.56;100684.41;5113121;28;20523;-59
2022/12/21 00:10:32;;;;;;;;;;;;;;;17.75;44.60;100689.09;5112709;28;19924;-59
2022/12/21 00:12:57;;;;;;;;;;;;;;;17.75;44.60;100691.03;5112683;28;19931;-60
2022/12/21 00:15:23;;;;;;;;;;;;;;;17.75;44.64;100680.03;5112711;28;19930;-59
2022/12/21 00:17:48;;;;;;;;;;;;;;;17.75;44.54;100685.53;5112134;28;19928;-59
2022/12/21 00:20:14;;;;;;;;;;;;;;;17.75;44.71;100680.03;5097002;28;19931;-59
2022/12/21 00:22:40;;;;;;;;;;;;;;;17.75;44.50;100685.53;5111869;28;20253;-60
2022/12/21 00:25:05;;;;;;;;;;;;;;;17.75;44.64;100683.59;5111908;28;19923;-59
2022/12/21 00:27:31;;;;;;;;;;;;;;;17.76;44.73;100681.66;5112342;28;19976;-59
2022/12/21 00:29:56;;;;;;;;;;;;;;;17.75;44.67;100682.78;5112006;28;20292;-59
2022/12/21 00:32:22;;;;;;;;;;;;;;;17.75;44.70;100677.25;5112587;28;19923;-59
2022/12/21 00:34:48;;;;;;;;;;;;;;;17.75;44.70;100672.59;5112481;28;19931;-59
2022/12/21 00:37:13;;;;;;;;;;;;;;;17.74;44.61;100667.31;5102520;28;19950;-59
2022/12/21 00:39:39;;;;;;;;;;;;;;;17.74;44.65;100670.91;5092663;28;19924;-58
2022/12/21 00:42:04;;;;;;;;;;;;;;;17.74;44.79;100673.66;5112083;28;19927;-59
2022/12/21 00:44:30;;;;;;;;;;;;;;;17.75;44.71;100666.25;5112006;28;19928;-59
2022/12/21 00:46:55;;;;;;;;;;;;;;;17.74;44.69;100665.41;5112364;28;19923;-59
2022/12/21 00:49:21;;;;;;;;;;;;;;;17.74;44.62;100668.16;5097273;28;19962;-59
2022/12/21 00:51:51;;;;;;;;;;;;;;;17.74;44.61;100667.31;5110098;28;20019;-60
2022/12/21 00:54:17;;;;;;;;;;;;;;;17.73;44.75;100671.97;5111823;28;20295;-59
2022/12/21 00:56:42;;;;;;;;;;;;;;;17.75;44.63;100667.06;5112314;28;19924;-59
2022/12/21 00:59:08;;;;;;;;;;;;;;;17.73;44.62;100669.22;5091904;28;19947;-59
2022/12/21 01:01:34;;;;;;;;;;;;;;;17.73;44.70;100663.72;5093053;28;20167;-59
2022/12/21 01:04:00;;;;;;;;;;;;;;;17.74;44.58;100664.56;5111788;28;19928;-59
2022/12/21 01:06:27;;;;;;;;;;;;;;;17.74;44.34;100668.16;5111492;28;19924;-59
2022/12/21 01:08:53;;;;;;;;;;;;;;;17.74;44.70;100678.34;5110521;28;20387;-59
2022/12/21 01:11:19;;;;;;;;;;;;;;;17.73;44.72;100682.19;5076271;28;19971;-59
2022/12/21 01:13:44;;;;;;;;;;;;;;;17.74;44.78;100690.19;5092974;28;19931;-59
2022/12/21 01:16:12;;;;;;;;;;;;;;;17.73;44.62;100693.19;5093704;28;19924;-59
2022/12/21 01:18:38;;;;;;;;;;;;;;;17.73;44.59;100696.78;5088631;28;19932;-59
2022/12/21 01:21:03;;;;;;;;;;;;;;;17.73;44.72;100702.28;5103141;28;20294;-59
2022/12/21 01:23:29;;;;;;;;;;;;;;;17.72;44.77;100692.38;5111516;28;19976;-59
2022/12/21 01:25:54;;;;;;;;;;;;;;;17.72;44.63;100697.88;5111074;28;19976;-59
2022/12/21 01:28:20;;;;;;;;;;;;;;;17.72;44.80;100702.56;5111486;28;20013;-59
2022/12/21 01:30:45;;;;;;;;;;;;;;;17.72;44.80;100697.06;5111381;28;19924;-59
2022/12/21 01:33:13;;;;;;;;;;;;;;;17.72;44.73;100708.06;5111053;28;19923;-60
2022/12/21 01:35:39;;;;;;;;;;;;;;;17.72;44.78;100714.41;5110706;28;19975;-59
2022/12/21 01:38:05;;;;;;;;;;;;;;;17.72;44.89;100710.84;5095346;28;20008;-59
2022/12/21 01:40:31;;;;;;;;;;;;;;;17.73;44.76;100715.22;5098406;28;19927;-59
2022/12/21 01:42:56;;;;;;;;;;;;;;;17.72;44.71;100713.59;5111243;28;19931;-60
2022/12/21 01:45:23;;;;;;;;;;;;;;;17.72;44.74;100706.16;5111122;28;19927;-59
2022/12/21 01:47:51;;;;;;;;;;;;;;;17.72;44.68;100703.38;5108743;28;20033;-59
2022/12/21 01:50:26;;;;;;;;;;;;;;;17.71;44.67;100699.00;5095082;28;20024;-59
2022/12/21 01:52:51;;;;;;;;;;;;;;;17.72;44.85;100708.06;5111147;28;19924;-59
2022/12/21 01:55:17;;;;;;;;;;;;;;;17.72;44.75;100706.16;5111219;28;19931;-59
2022/12/21 01:57:43;;;;;;;;;;;;;;;17.73;44.79;100706.97;5111448;28;19930;-59
2022/12/21 02:00:09;;;;;;;;;;;;;;;17.72;44.78;100702.56;5110937;28;19928;-59
2022/12/21 02:02:36;;;;;;;;;;;;;;;17.72;44.77;100694.31;5111054;28;19963;-60
2022/12/21 02:05:22;;;;;;;;;;;;;;;17.71;44.83;100696.25;5092759;28;19966;-60
2022/12/21 02:07:47;;;;;;;;;;;;;;;17.72;44.73;100699.81;5095445;28;19924;-59
2022/12/21 02:10:13;;;;;;;;;;;;;;;17.71;44.64;100696.25;5110724;28;19928;-60
2022/12/21 02:12:38;;;;;;;;;;;;;;;17.71;44.91;100699.00;5093048;28;19931;-60
2022/12/21 02:15:04;;;;;;;;;;;;;;;17.71;44.92;100701.75;5090516;28;19924;-59
2022/12/21 02:17:49;;;;;;;;;;;;;;;17.70;44.79;100705.59;5090683;28;19951;-59
2022/12/21 02:20:29;;;;;;;;;;;;;;;17.72;44.85;100708.06;5079308;28;19970;-60
2022/12/21 02:23:01;;;;;;;;;;;;;;;17.72;44.77;100708.06;5110427;28;19928;-59
2022/12/21 02:25:46;;;;;;;;;;;;;;;17.71;44.81;100710.00;5109685;28;20414;-58
2022/12/21 02:28:21;;;;;;;;;;;;;;;17.70;44.67;100694.59;5095358;28;19951;-59
2022/12/21 02:30:52;;;;;;;;;;;;;;;17.71;44.77;100706.44;5100804;28;19928;-59
2022/12/21 02:33:37;;;;;;;;;;;;;;;17.69;44.70;100709.44;5087959;28;19927;-59
2022/12/21 02:36:12;;;;;;;;;;;;;;;17.70;44.85;100705.59;5094948;28;20372;-59
2022/12/21 02:38:57;;;;;;;;;;;;;;;17.71;44.82;100709.19;5070202;28;19982;-59
2022/12/21 02:44:34;;;;;;;;;;;;;;;17.70;44.86;100713.03;5190241;27;19929;-57
2022/12/21 02:47:01;;;;;;;;;;;;;;;17.70;44.93;100707.50;5174341;27;19964;-57
2022/12/21 02:49:46;;;;;;;;;;;;;;;17.70;44.78;100711.13;5184065;27;20273;-57
2022/12/21 02:52:28;;;;;;;;;;;;;;;17.70;44.86;100707.50;5159573;27;20460;-57
2022/12/21 02:54:57;;;;;;;;;;;;;;;17.69;44.92;100703.94;5160625;27;20467;-57
2022/12/21 02:57:30;;;;;;;;;;;;;;;17.71;44.95;100706.44;5150259;27;19992;-57
2022/12/21 02:59:56;;;;;;;;;;;;;;;17.68;44.78;100705.03;5171303;27;20359;-57
2022/12/21 03:05:20;;;;;;;;;;;;;;;17.69;44.82;100705.88;5189539;27;19925;-57
2022/12/21 03:08:07;;;;;;;;;;;;;;;17.68;44.87;100696.78;5174118;27;19930;-56
2022/12/21 03:10:41;;;;;;;;;;;;;;;17.69;44.88;100690.16;5174040;27;20374;-57
2022/12/21 03:13:26;;;;;;;;;;;;;;;17.70;44.88;100694.59;5189154;27;19927;-57
2022/12/21 03:19:04;;;;;;;;;;;;;;;17.68;44.91;100674.75;5189355;27;19925;-56
2022/12/21 03:21:33;;;;;;;;;;;;;;;17.69;44.86;100678.31;5168775;27;19922;-56
2022/12/21 03:24:01;;;;;;;;;;;;;;;17.69;44.91;100675.56;5170686;27;19938;-56
2022/12/21 03:26:28;;;;;;;;;;;;;;;17.69;44.97;100675.56;5189872;27;19926;-57
2022/12/21 03:28:53;;;;;;;;;;;;;;;17.69;44.86;100675.56;5170554;27;19934;-57
2022/12/21 03:31:20;;;;;;;;;;;;;;;17.69;44.91;100670.88;5190031;27;19923;-56
2022/12/21 03:33:48;;;;;;;;;;;;;;;17.69;44.93;100672.81;5189221;27;19930;-57
2022/12/21 03:36:17;;;;;;;;;;;;;;;17.69;44.89;100672.81;5189645;27;19929;-57
2022/12/21 03:38:44;;;;;;;;;;;;;;;17.69;44.85;100667.31;5170955;27;19979;-57
2022/12/21 03:41:10;;;;;;;;;;;;;;;17.69;44.92;100670.88;5189860;27;20371;-57
2022/12/21 03:43:36;;;;;;;;;;;;;;;17.68;44.75;100658.22;5178923;27;19939;-57
2022/12/21 03:46:10;;;;;;;;;;;;;;;17.69;44.86;100661.81;5168095;27;19930;-56
2022/12/21 03:48:36;;;;;;;;;;;;;;;17.69;45.00;100659.88;5168357;27;19923;-57
2022/12/21 03:51:03;;;;;;;;;;;;;;;17.69;45.08;100670.06;5186771;27;19927;-57
2022/12/21 03:53:49;;;;;;;;;;;;;;;17.69;44.94;100661.81;5170368;27;19926;-57
2022/12/21 03:56:17;;;;;;;;;;;;;;;17.68;45.01;100658.22;5173757;27;19971;-57
2022/12/21 03:58:42;;;;;;;;;;;;;;;17.68;44.85;100644.44;5188803;27;19923;-57
2022/12/21 04:01:12;;;;;;;;;;;;;;;17.68;44.92;100647.22;5189416;27;20290;-57
2022/12/21 04:03:39;;;;;;;;;;;;;;;17.68;45.02;100640.88;5174395;27;19927;-57
2022/12/21 04:06:07;;;;;;;;;;;;;;;17.67;44.96;100634.53;5168488;27;20331;-57
2022/12/21 04:08:32;;;;;;;;;;;;;;;17.68;45.07;100632.63;5149286;27;20322;-56
2022/12/21 04:10:58;;;;;;;;;;;;;;;17.69;44.67;100637.00;5168129;27;20363;-56
2022/12/21 04:13:24;;;;;;;;;;;;;;;17.69;45.05;100637.00;5168120;27;19927;-57
2022/12/21 04:16:04;;;;;;;;;;;;;;;17.69;45.01;100632.31;5167395;27;20385;-57
2022/12/21 04:21:16;;;;;;;;;;;;;;;17.68;45.05;100627.94;5139505;27;19923;-57
2022/12/21 04:29:13;;;;;;;;;;;;;;;17.68;45.04;100624.34;5143571;27;20394;-56
2022/12/21 04:31:39;;;;;;;;;;;;;;;17.68;44.93;100627.09;5153894;27;19923;-58
2022/12/21 04:34:05;;;;;;;;;;;;;;;17.68;45.02;100636.19;5153423;27;19931;-57
2022/12/21 04:39:16;;;;;;;;;;;;;;;17.67;45.04;100631.78;5138463;27;19973;-57
2022/12/21 04:41:41;;;;;;;;;;;;;;;17.68;44.98;100638.13;5153657;27;19930;-56
2022/12/21 04:44:07;;;;;;;;;;;;;;;17.67;44.87;100634.53;5139089;27;19928;-57
2022/12/21 04:46:32;;;;;;;;;;;;;;;17.69;44.93;100637.00;5133020;28;20136;-56
2022/12/21 04:48:58;;;;;;;;;;;;;;;17.67;44.92;100634.53;5132840;28;19953;-56
2022/12/21 04:51:24;;;;;;;;;;;;;;;17.68;45.08;100629.88;5151172;27;20300;-56
2022/12/21 04:53:50;;;;;;;;;;;;;;;17.66;45.00;100621.88;5152800;27;19927;-57
2022/12/21 04:56:15;;;;;;;;;;;;;;;17.67;44.99;100629.03;5153702;27;19985;-56
2022/12/21 04:58:41;;;;;;;;;;;;;;;17.67;44.98;100637.31;5153160;27;20251;-57
2022/12/21 05:01:08;;;;;;;;;;;;;;;17.68;45.03;100632.63;5153406;27;19923;-57
2022/12/21 05:03:34;;;;;;;;;;;;;;;17.67;44.87;100637.31;5153036;27;19923;-57
2022/12/21 05:05:59;;;;;;;;;;;;;;;17.67;44.88;100630.97;5153536;27;19930;-57
2022/12/21 05:08:25;;;;;;;;;;;;;;;17.67;44.97;100630.97;5153624;27;19979;-57
2022/12/21 05:10:50;;;;;;;;;;;;;;;17.66;45.04;100626.53;5153420;27;19923;-57
2022/12/21 05:13:16;;;;;;;;;;;;;;;17.67;45.06;100631.78;5153383;27;19923;-57
2022/12/21 05:15:42;;;;;;;;;;;;;;;17.67;44.99;100629.03;5134672;27;19999;-57
2022/12/21 05:18:07;;;;;;;;;;;;;;;17.66;45.09;100632.91;5152820;27;19923;-56
2022/12/21 05:20:33;;;;;;;;;;;;;;;17.67;44.93;100625.47;5152805;27;19967;-56
2022/12/21 05:22:58;;;;;;;;;;;;;;;17.67;45.07;100622.72;5152482;27;20318;-57
2022/12/21 05:25:24;;;;;;;;;;;;;;;17.67;44.95;100629.03;5151554;27;19923;-57
2022/12/21 05:27:49;;;;;;;;;;;;;;;17.67;44.96;100617.19;5144013;27;20385;-57
2022/12/21 05:30:15;;;;;;;;;;;;;;;17.67;44.86;100619.97;5149263;27;19923;-57
2022/12/21 05:32:41;;;;;;;;;;;;;;;17.66;44.74;100621.03;5147047;27;19935;-57
2022/12/21 05:35:07;;;;;;;;;;;;;;;17.65;44.96;100622.97;5146143;27;19928;-57
2022/12/21 05:37:41;;;;;;;;;;;;;;;17.66;45.08;100626.53;5132310;28;19927;-57
2022/12/21 05:40:07;;;;;;;;;;;;;;;17.66;45.04;100623.78;5134971;27;19923;-57
2022/12/21 05:42:32;;;;;;;;;;;;;;;17.66;45.13;100627.41;5152398;27;20008;-57
2022/12/21 05:44:58;;;;;;;;;;;;;;;17.66;45.05;100627.41;5152838;27;19946;-57
2022/12/21 05:47:24;;;;;;;;;;;;;;;17.65;45.04;100614.72;5152851;27;19923;-56
2022/12/21 05:49:49;;;;;;;;;;;;;;;17.66;45.03;100615.53;5150001;27;20391;-56
2022/12/21 05:52:15;;;;;;;;;;;;;;;17.66;45.02;100613.63;5141893;27;19923;-56
2022/12/21 05:54:41;;;;;;;;;;;;;;;17.67;45.13;100604.25;5131612;28;19923;-57
2022/12/21 05:57:06;;;;;;;;;;;;;;;17.65;44.92;100603.69;5134181;27;19930;-58
2022/12/21 05:59:32;;;;;;;;;;;;;;;17.65;45.13;100603.69;5131043;28;19923;-57
2022/12/21 06:01:57;;;;;;;;;;;;;;;17.66;45.07;100599.00;5143784;27;19930;-57
2022/12/21 06:04:23;;;;;;;;;;;;;;;17.65;44.98;100603.69;5138080;27;20349;-57
2022/12/21 06:06:49;;;;;;;;;;;;;;;17.65;45.10;100598.19;5147027;27;19935;-57
2022/12/21 06:09:14;;;;;;;;;;;;;;;17.65;45.15;100609.19;5139220;27;19927;-57
2022/12/21 06:11:40;;;;;;;;;;;;;;;17.65;44.95;100605.63;5148439;27;19927;-57
2022/12/21 06:14:05;;;;;;;;;;;;;;;17.67;45.14;100604.25;5146200;27;19924;-57
2022/12/21 06:16:31;;;;;;;;;;;;;;;17.66;45.08;100601.75;5145640;27;19927;-57
2022/12/21 06:18:57;;;;;;;;;;;;;;;17.65;45.08;100603.69;5142036;27;19930;-56
2022/12/21 06:21:22;;;;;;;;;;;;;;;17.65;45.13;100611.13;5146172;27;19924;-56
2022/12/21 06:23:48;;;;;;;;;;;;;;;17.65;45.08;100609.19;5140088;27;20311;-56
2022/12/21 06:26:15;;;;;;;;;;;;;;;17.66;44.99;100610.03;5135975;27;19923;-56
2022/12/21 06:28:40;;;;;;;;;;;;;;;17.65;45.03;100611.13;5129405;27;19986;-56
2022/12/21 06:31:07;;;;;;;;;;;;;;;17.65;45.21;100619.41;5140154;27;20386;-57
2022/12/21 06:33:32;;;;;;;;;;;;;;;17.66;45.17;100615.53;5125867;27;19930;-57
2022/12/21 06:35:58;;;;;;;;;;;;;;;17.65;45.17;100613.88;5118388;27;19927;-57
2022/12/21 06:38:24;;;;;;;;;;;;;;;17.65;45.06;100617.47;5137453;27;19927;-57
2022/12/21 06:40:58;;;;;;;;;;;;;;;17.64;45.07;100618.56;5114201;28;19927;-57
2022/12/21 06:43:24;;;;;;;;;;;;;;;17.64;45.21;100615.81;5120854;27;19930;-57
2022/12/21 06:45:52;;;;;;;;;;;;;;;17.64;45.04;100618.56;5119873;27;20311;-56
2022/12/21 06:48:17;;;;;;;;;;;;;;;17.65;45.00;100622.16;5137719;27;19975;-57
2022/12/21 06:50:43;;;;;;;;;;;;;;;17.63;45.05;100605.91;5141306;27;19969;-57
2022/12/21 06:53:09;;;;;;;;;;;;;;;17.64;45.10;100587.47;5140152;27;20292;-56
2022/12/21 06:55:34;;;;;;;;;;;;;;;17.64;45.17;100588.28;5135469;27;19923;-57
2022/12/21 06:58:00;;;;;;;;;;;;;;;17.65;45.00;100602.88;5142439;27;20274;-57
2022/12/21 07:00:25;;;;;;;;;;;;;;;17.65;45.09;100608.38;5143073;27;19924;-57
2022/12/21 07:02:51;;;;;;;;;;;;;;;17.64;45.19;100618.56;5136462;27;20378;-57
2022/12/21 07:05:17;;;;;;;;;;;;;;;17.65;45.18;100620.22;5138366;27;19938;-57
2022/12/21 07:07:42;;;;;;;;;;;;;;;17.65;45.14;100622.16;5139415;27;20108;-56
2022/12/21 07:10:08;;;;;;;;;;;;;;;17.65;45.24;100627.66;5147120;27;19923;-56
2022/12/21 07:12:34;;;;;;;;;;;;;;;17.65;45.33;100635.91;5143062;27;19927;-57
2022/12/21 07:14:59;;;;;;;;;;;;;;;17.64;45.14;100626.00;5145105;27;19931;-57
2022/12/21 07:17:25;;;;;;;;;;;;;;;17.65;45.24;100627.66;5140899;27;19932;-56
2022/12/21 07:19:50;;;;;;;;;;;;;;;17.64;45.25;100620.50;5146882;27;19927;-56
2022/12/21 07:22:16;;;;;;;;;;;;;;;17.65;45.25;100638.66;5147004;27;20342;-56
2022/12/21 07:24:41;;;;;;;;;;;;;;;17.65;45.38;100631.22;5143405;27;19924;-57
2022/12/21 07:27:07;;;;;;;;;;;;;;;17.65;45.38;100627.66;5141517;27;19934;-56
2022/12/21 07:29:33;;;;;;;;;;;;;;;17.64;45.27;100626.00;5147421;27;20439;-56
2022/12/21 07:31:58;;;;;;;;;;;;;;;17.63;45.41;100622.44;5137696;27;19957;-59
2022/12/21 07:34:24;;;;;;;;;;;;;;;17.65;45.32;100631.22;5131119;27;20356;-56
2022/12/21 07:36:49;;;;;;;;;;;;;;;17.64;45.42;100634.28;5128621;27;19927;-57
2022/12/21 07:39:15;;;;;;;;;;;;;;;17.65;45.49;100642.25;5132044;27;19931;-56
2022/12/21 07:41:41;;;;;;;;;;;;;;;17.65;45.38;100649.69;5134488;27;19946;-56
2022/12/21 07:44:06;;;;;;;;;;;;;;;17.64;45.40;100651.63;5137281;27;19930;-57
2022/12/21 07:46:32;;;;;;;;;;;;;;;17.64;45.33;100650.78;5132140;27;20294;-57
2022/12/21 07:48:57;;;;;;;;;;;;;;;17.64;45.45;100656.31;5121472;27;20135;-56
2022/12/21 07:51:23;;;;;;;;;;;;;;;17.64;45.42;100648.88;5132557;27;20315;-57
2022/12/21 07:57:10;;;;;;;;;;;;;;;17.65;45.42;100655.19;5126985;27;20076;-57
2022/12/21 07:59:36;;;;;;;;;;;;;;;17.65;45.43;100672.53;5128163;27;19931;-56
2022/12/21 08:02:01;;;;;;;;;;;;;;;17.65;45.51;100677.22;5124008;27;19923;-56
2022/12/21 08:04:27;;;;;;;;;;;;;;;17.64;45.37;100678.34;5120288;27;19938;-57
2022/12/21 08:06:53;;;;;;;;;;;;;;;17.65;45.42;100671.72;5127897;27;19924;-56
2022/12/21 08:09:18;;;;;;;;;;;;;;;17.64;45.58;100681.91;5119208;27;19927;-57
2022/12/21 08:11:44;;;;;;;;;;;;;;;17.64;45.51;100678.34;5119888;27;19960;-56
2022/12/21 08:14:09;;;;;;;;;;;;;;;17.64;45.42;100670.91;5130897;27;19934;-56
2022/12/21 08:16:35;;;;;;;;;;;;;;;17.64;45.51;100667.31;5137843;27;19926;-57
2022/12/21 08:19:01;;;;;;;;;;;;;;;17.63;45.45;100661.00;5131403;27;19949;-56
2022/12/21 08:21:26;;;;;;;;;;;;;;;17.64;45.62;100673.66;5113487;27;20390;-56
2022/12/21 08:23:52;;;;;;;;;;;;;;;17.64;45.61;100687.41;5139078;27;19927;-56
2022/12/21 08:26:17;;;;;;;;;;;;;;;17.65;45.62;100685.50;5138144;27;20273;-56
2022/12/21 08:28:44;;;;;;;;;;;;;;;17.64;45.63;100692.09;5140341;27;19927;-56
2022/12/21 08:31:12;;;;;;;;;;;;;;;17.64;45.57;100686.59;5136935;27;20389;-56
2022/12/21 08:33:41;;;;;;;;;;;;;;;17.64;45.50;100678.34;5120699;27;19936;-57
2022/12/21 08:36:08;;;;;;;;;;;;;;;17.68;48.30;100683.00;5142277;27;19966;-57
2022/12/21 08:38:33;;;;;;;;;;;;;;;17.61;51.41;100689.91;5137873;27;19938;-57
2022/12/21 08:41:19;;;;;;;;;;;;;;;17.47;51.92;100690.44;5118448;27;19944;-57
2022/12/21 08:43:45;;;;;;;;;;;;;;;17.73;50.27;100685.75;5137672;27;19931;-55
2022/12/21 08:46:11;;;;;;;;;;;;;;;17.73;48.29;100691.25;5140441;27;19934;-56
2022/12/21 08:48:37;;;;;;;;;;;;;;;17.72;48.57;100689.63;5132337;27;19987;-56
2022/12/21 08:51:03;;;;;;;;;;;;;;;17.71;48.50;100693.47;5118811;27;20391;-56
2022/12/21 08:53:29;;;;;;;;;;;;;;;17.72;48.44;100686.03;5114831;27;20640;-56
2022/12/21 08:55:54;;;;;;;;;;;;;;;17.71;48.39;100696.25;5140354;27;19948;-57
2022/12/21 08:58:20;;;;;;;;;;;;;;;17.72;48.23;100702.56;5136493;27;19927;-57
2022/12/21 09:00:46;;;;;;;;;;;;;;;17.73;48.11;100690.44;5132078;27;19934;-56
2022/12/21 09:03:11;;;;;;;;;;;;;;;17.73;47.97;100698.69;5137263;27;19927;-55
2022/12/21 09:05:37;;;;;;;;;;;;;;;17.73;48.00;100702.28;5135179;27;19933;-56
2022/12/21 09:08:03;;;;;;;;;;;;;;;17.74;47.78;100725.16;5132187;27;19938;-57
2022/12/21 09:10:29;;;;;;;;;;;;;;;17.74;47.72;100728.75;5120803;27;19927;-58
2022/12/21 09:12:55;;;;;;;;;;;;;;;17.74;47.61;100734.25;5136007;27;20728;-57
2022/12/21 09:15:21;;;;;;;;;;;;;;;17.76;47.64;100729.31;5110491;27;19932;-56
2022/12/21 09:17:47;;;;;;;;;;;;;;;17.76;47.52;100728.50;5131687;27;19970;-58
2022/12/21 09:20:13;;;;;;;;;;;;;;;17.75;47.49;100729.59;5124134;27;20319;-59
2022/12/21 09:22:38;;;;;;;;;;;;;;;17.76;47.48;100729.31;5134220;27;19935;-59
2022/12/21 09:25:12;;;;;;;;;;;;;;;17.76;47.43;100729.31;5136293;27;19931;-59
2022/12/21 09:27:37;;;;;;;;;;;;;;;17.77;47.26;100736.47;5135350;27;20272;-60
2022/12/21 09:30:03;;;;;;;;;;;;;;;17.77;47.36;100744.72;5114298;27;19977;-59
2022/12/21 09:32:29;;;;;;;;;;;;;;;17.78;47.18;100737.28;5129939;27;19934;-60
2022/12/21 09:34:54;;;;;;;;;;;;;;;17.78;47.10;100738.09;5131676;27;20018;-59
2022/12/21 09:37:20;;;;;;;;;;;;;;;17.80;47.29;100732.34;5132446;27;19976;-59
2022/12/21 09:39:49;;;;;;;;;;;;;;;17.79;47.06;100741.72;5126936;27;19935;-59
2022/12/21 09:42:23;;;;;;;;;;;;;;;17.78;46.98;100738.09;5135890;27;21522;-59
2022/12/21 09:45:08;;;;;;;;;;;;;;;17.80;46.99;100746.94;5132656;27;21075;-59
2022/12/21 09:47:39;;;;;;;;;;;;;;;17.80;46.93;100757.97;5115810;27;19981;-59
2022/12/21 09:50:07;;;;;;;;;;;;;;;17.82;46.94;100759.59;5130354;27;19931;-59
2022/12/21 09:52:34;;;;;;;;;;;;;;;17.81;46.91;100753.28;5133112;27;20321;-59
2022/12/21 09:55:16;;;;;;;;;;;;;;;17.80;47.07;100749.69;5131833;27;19931;-60
2022/12/21 09:57:42;;;;;;;;;;;;;;;17.80;47.00;100746.94;5140270;27;19938;-60
2022/12/21 10:00:24;;;;;;;;;;;;;;;17.80;46.97;100755.19;5134656;27;19935;-59
2022/12/21 10:03:08;;;;;;;;;;;;;;;17.82;46.97;100756.84;5117086;27;19931;-59
2022/12/21 10:05:53;;;;;;;;;;;;;;;17.80;46.90;100757.97;5135064;27;19934;-59
2022/12/21 10:08:23;;;;;;;;;;;;;;;17.80;46.91;100760.72;5121485;27;20368;-59
2022/12/21 10:10:52;;;;;;;;;;;;;;;17.81;46.92;100758.78;5139686;27;19923;-58
2022/12/21 10:13:37;;;;;;;;;;;;;;;17.80;46.97;100760.72;5138052;27;20016;-60
2022/12/21 10:16:08;;;;;;;;;;;;;;;17.79;46.75;100756.31;5120370;27;19931;-60
2022/12/21 10:18:53;;;;;;;;;;;;;;;17.80;46.75;100765.41;5135162;27;20426;-60
2022/12/21 10:21:25;;;;;;;;;;;;;;;17.77;48.93;100763.19;5137000;27;19923;-60
2022/12/21 10:23:52;;;;;;;;;;;;;;;17.80;47.79;100768.97;5136573;27;20286;-59
2022/12/21 10:26:19;;;;;;;;;;;;;;;17.82;47.62;100776.13;5138629;27;19963;-59
2022/12/21 10:28:50;;;;;;;;;;;;;;;17.81;47.59;100772.56;5117714;27;19923;-59
2022/12/21 10:31:20;;;;;;;;;;;;;;;17.81;47.48;100778.06;5113552;27;19927;-60
2022/12/21 10:33:46;;;;;;;;;;;;;;;17.82;47.35;100793.47;5133471;27;19923;-60
2022/12/21 10:36:15;;;;;;;;;;;;;;;17.83;47.39;100791.56;5133916;27;19927;-60
2022/12/21 10:38:40;;;;;;;;;;;;;;;17.82;47.31;100790.72;5127800;27;20202;-59
2022/12/21 10:41:08;;;;;;;;;;;;;;;17.83;47.33;100781.34;5111023;27;19984;-59
2022/12/21 10:43:36;;;;;;;;;;;;;;;17.84;47.32;100773.94;5128437;27;20608;-59
2022/12/21 10:46:01;;;;;;;;;;;;;;;17.84;47.22;100774.78;5127313;27;20367;-59
2022/12/21 10:48:27;;;;;;;;;;;;;;;17.85;47.18;100767.31;5126620;27;19926;-59
2022/12/21 10:50:54;;;;;;;;;;;;;;;17.85;47.08;100773.66;5132264;27;19923;-59
2022/12/21 10:53:24;;;;;;;;;;;;;;;17.85;47.10;100768.16;5130030;27;20206;-59
2022/12/21 10:55:57;;;;;;;;;;;;;;;17.86;47.01;100766.22;5107667;27;20002;-58
2022/12/21 10:58:24;;;;;;;;;;;;;;;17.86;47.08;100768.97;5109611;27;19938;-59
2022/12/21 11:00:52;;;;;;;;;;;;;;;17.76;51.59;100776.13;5126749;27;20666;-57
2022/12/21 11:03:23;;;;;;;;;;;;;;;17.86;47.70;100756.03;5113303;27;19927;-59
2022/12/21 11:05:49;;;;;;;;;;;;;;;17.90;47.47;100764.56;5141384;27;20278;-59
2022/12/21 11:08:18;;;;;;;;;;;;;;;17.90;47.09;100754.38;5132332;27;19934;-59
2022/12/21 11:10:44;;;;;;;;;;;;;;;17.91;47.22;100747.75;5134184;27;19923;-59
2022/12/21 11:13:20;;;;;;;;;;;;;;;17.93;47.31;100753.81;5139538;27;20088;-59
2022/12/21 11:16:02;;;;;;;;;;;;;;;17.92;47.21;100759.59;5106759;27;19923;-59
2022/12/21 11:18:33;;;;;;;;;;;;;;;17.92;47.30;100759.59;5127460;27;19934;-59
2022/12/21 11:20:59;;;;;;;;;;;;;;;17.94;47.31;100754.66;5111478;27;20165;-59
2022/12/21 11:23:24;;;;;;;;;;;;;;;17.92;47.30;100746.66;5129180;27;19959;-59
2022/12/21 11:25:50;;;;;;;;;;;;;;;17.93;46.89;100759.34;5128738;27;20377;-59
2022/12/21 11:28:17;;;;;;;;;;;;;;;17.94;47.08;100755.47;5130108;27;20009;-59
2022/12/21 11:30:43;;;;;;;;;;;;;;;17.95;47.25;100756.28;5117165;27;19927;-59
2022/12/21 11:33:12;;;;;;;;;;;;;;;17.92;47.18;100757.69;5126867;27;19928;-59
2022/12/21 11:35:38;;;;;;;;;;;;;;;17.95;47.11;100753.53;5112673;27;20710;-60
2022/12/21 11:38:13;;;;;;;;;;;;;;;17.94;47.27;100758.22;5126655;27;20612;-59
2022/12/21 11:40:39;;;;;;;;;;;;;;;17.95;47.27;100748.03;5111828;27;20403;-60
2022/12/21 11:43:05;;;;;;;;;;;;;;;17.96;47.10;100752.44;5123124;27;19927;-60
2022/12/21 11:45:56;;;;;;;;;;;;;;;17.96;47.01;100746.91;5120126;27;19976;-59
2022/12/21 11:49:01;;;;;;;;;;;;;;;17.96;47.06;100749.66;5110415;27;19991;-59
2022/12/21 11:51:29;;;;;;;;;;;;;;;17.97;47.05;100752.16;5113247;27;19927;-60
2022/12/21 11:54:01;;;;;;;;;;;;;;;17.97;47.02;100754.94;5126465;27;19934;-59
2022/12/21 11:56:33;;;;;;;;;;;;;;;17.96;49.06;100752.44;5130492;27;20438;-59
2022/12/21 11:59:19;;;;;;;;;;;;;;;17.99;47.27;100751.88;5123925;27;19932;-59
2022/12/21 12:01:54;;;;;;;;;;;;;;;18.00;47.15;100748.00;5109081;27;19931;-59
2022/12/21 12:04:32;;;;;;;;;;;;;;;17.99;47.45;100738.94;5127823;27;20514;-59
2022/12/21 12:07:18;;;;;;;;;;;;;;;17.99;47.38;100749.94;5132487;27;20169;-61
2022/12/21 12:09:48;;;;;;;;;;;;;;;17.99;47.15;100752.69;5134157;27;19931;-59
2022/12/21 12:12:18;;;;;;;;;;;;;;;18.00;47.13;100761.78;5131055;27;19949;-59
2022/12/21 12:15:04;;;;;;;;;;;;;;;17.99;47.24;100746.38;5137743;27;20758;-59
2022/12/21 12:17:49;;;;;;;;;;;;;;;17.99;47.21;100740.84;5123889;27;20635;-59
2022/12/21 12:20:23;;;;;;;;;;;;;;;18.00;47.18;100734.25;5122874;27;20003;-59
2022/12/21 12:23:08;;;;;;;;;;;;;;;18.00;47.24;100737.00;5137478;27;19928;-59
2022/12/21 12:25:54;;;;;;;;;;;;;;;18.03;48.71;100744.72;5121538;27;20405;-59
2022/12/21 12:28:25;;;;;;;;;;;;;;;18.01;47.58;100744.19;5115837;27;20224;-59
2022/12/21 12:31:01;;;;;;;;;;;;;;;18.03;47.31;100741.97;5127752;27;20350;-59
2022/12/21 12:33:47;;;;;;;;;;;;;;;18.02;47.36;100730.13;5125428;27;19968;-58
2022/12/21 12:36:33;;;;;;;;;;;;;;;18.02;47.29;100721.84;5135265;27;20393;-59
2022/12/21 12:41:36;;;;;;;;;;;;;;;18.03;47.40;100722.66;5151503;27;19934;-57
2022/12/21 12:44:04;;;;;;;;;;;;;;;18.02;47.43;100729.28;5134290;27;19924;-57
2022/12/21 12:46:50;;;;;;;;;;;;;;;18.02;47.36;100721.03;5128817;27;19977;-56
2022/12/21 12:49:24;;;;;;;;;;;;;;;18.03;47.43;100712.47;5111852;27;19931;-57
2022/12/21 12:51:58;;;;;;;;;;;;;;;18.02;47.29;100716.34;5130767;27;19927;-57
2022/12/21 12:54:27;;;;;;;;;;;;;;;18.03;47.26;100717.97;5126716;27;19935;-57
2022/12/21 12:56:55;;;;;;;;;;;;;;;18.03;47.20;100717.16;5123023;27;19935;-57
2022/12/21 12:59:30;;;;;;;;;;;;;;;18.03;47.35;100708.91;5135919;27;19963;-57
2022/12/21 13:01:59;;;;;;;;;;;;;;;18.04;47.08;100699.50;5127998;27;19958;-56
2022/12/21 13:04:44;;;;;;;;;;;;;;;18.02;47.25;100694.28;5115774;27;20349;-56
2022/12/21 13:07:30;;;;;;;;;;;;;;;18.04;47.05;100703.09;5100424;27;20374;-57
2022/12/21 13:10:15;;;;;;;;;;;;;;;18.06;47.05;100705.59;5099838;27;19927;-56